Time;durP1;ratioP1;P1;durP2;ratioP2;P2;SDS_P1;SDS_P2;PMS_P1;PMS_P2;Temp;Humidity;BMP_temperature;BMP_pressure;BME280_temperature;BME280_humidity;BME280_pressure;Samples;Min_cycle;Max_cycle;Signal;HPM_P1;HPM_P2
2023/10/05 00:01:03;;;;;;;9.50;2.70;;;;;;;11.22;90.71;99964.19;108762;1255;1003020;-63
2023/10/05 00:03:32;;;;;;;12.10;3.10;;;;;;;11.16;91.16;99959.34;109501;1254;68152;-62
2023/10/05 00:06:24;;;;;;;11.90;3.10;;;;;;;11.14;90.73;99958.11;109500;1253;72379;-64
2023/10/05 00:09:15;;;;;;;10.90;3.00;;;;;;;11.10;91.11;99955.89;109475;1253;58562;-64
2023/10/05 00:12:05;;;;;;;10.60;2.60;;;;;;;11.04;91.28;99949.64;109303;1253;58858;-62
2023/10/05 00:17:51;;;;;;;12.90;3.20;;;;;;;11.02;91.78;99947.14;109596;1251;67662;-62
2023/10/05 00:20:41;;;;;;;9.20;2.80;;;;;;;11.00;91.87;99942.53;109605;1251;72378;-65
2023/10/05 00:23:29;;;;;;;12.80;3.20;;;;;;;10.97;92.16;99938.48;109613;1251;57230;-63
2023/10/05 00:26:20;;;;;;;12.10;3.40;;;;;;;10.96;92.39;99933.64;109651;1251;59445;-62
2023/10/05 00:32:15;;;;;;;13.00;3.30;;;;;;;10.91;92.87;99916.60;109631;1251;67947;-63
2023/10/05 00:38:14;;;;;;;10.30;2.90;;;;;;;10.89;93.16;99916.39;109617;1251;59527;-63
2023/10/05 00:41:08;;;;;;;10.00;3.30;;;;;;;10.87;93.46;99916.41;109636;1251;60249;-62
2023/10/05 00:43:55;;;;;;;9.90;2.60;;;;;;;10.86;93.23;99908.86;109561;1251;73141;-64
2023/10/05 00:46:50;;;;;;;11.30;2.90;;;;;;;10.83;93.59;99900.77;109653;1251;67982;-62
2023/10/05 00:50:22;;;;;;;13.20;2.90;;;;;;;10.81;93.56;99896.35;109385;1251;72782;-63
2023/10/05 00:52:52;;;;;;;11.40;3.40;;;;;;;10.77;93.64;99894.11;109579;1254;59355;-62
2023/10/05 00:55:43;;;;;;;11.90;3.10;;;;;;;10.74;93.92;99897.23;109623;1251;60079;-63
2023/10/05 00:58:37;;;;;;;11.50;3.40;;;;;;;10.70;94.12;99899.67;109602;1251;73445;-63
2023/10/05 01:01:32;;;;;;;9.90;3.10;;;;;;;10.66;94.45;99894.82;109536;1251;67763;-63
2023/10/05 01:04:28;;;;;;;10.40;3.20;;;;;;;10.63;94.56;99887.52;109501;1251;193991;-62
2023/10/05 01:07:24;;;;;;;13.00;3.10;;;;;;;10.59;94.82;99882.45;109587;1251;59263;-62
2023/10/05 01:10:28;;;;;;;11.50;3.10;;;;;;;10.56;94.82;99882.02;109655;1251;59240;-63
2023/10/05 01:13:42;;;;;;;13.00;3.40;;;;;;;10.52;95.00;99886.02;109533;1251;72670;-62
2023/10/05 01:16:32;;;;;;;10.10;2.80;;;;;;;10.48;95.64;99884.78;108998;1259;67762;-64
2023/10/05 01:19:20;;;;;;;11.00;3.10;;;;;;;10.44;96.66;99879.96;108946;1260;71251;-65
2023/10/05 01:22:13;;;;;;;12.80;3.60;;;;;;;10.41;96.67;99869.88;108869;1260;60314;-63
2023/10/05 01:25:04;;;;;;;10.00;2.80;;;;;;;10.39;96.76;99867.40;108852;1260;58909;-64
2023/10/05 01:27:54;;;;;;;12.80;3.20;;;;;;;10.36;96.89;99868.81;108900;1261;71969;-62
2023/10/05 01:30:41;;;;;;;12.80;3.20;;;;;;;10.35;96.92;99867.14;108950;1262;68853;-62
2023/10/05 01:33:29;;;;;;;13.50;2.90;;;;;;;10.33;97.59;99862.34;108853;1261;72810;-63
2023/10/05 01:36:18;;;;;;;13.70;3.30;;;;;;;10.32;97.86;99853.23;108940;1262;57972;-63
2023/10/05 01:39:09;;;;;;;9.80;3.10;;;;;;;10.31;97.88;99849.37;108960;1260;59075;-62
2023/10/05 01:41:59;;;;;;;13.30;3.20;;;;;;;10.32;98.17;99841.31;108972;1262;71479;-62
2023/10/05 01:44:47;;;;;;;9.60;2.70;;;;;;;10.34;98.04;99840.48;108832;1260;67835;-63
2023/10/05 01:47:35;;;;;;;10.60;3.30;;;;;;;10.36;98.09;99834.46;108932;1261;71536;-63
2023/10/05 01:50:24;;;;;;;10.40;2.80;;;;;;;10.39;98.40;99827.27;108925;1260;59148;-63
2023/10/05 01:53:20;;;;;;;8.80;3.00;;;;;;;10.42;98.63;99821.38;109186;1255;60280;-63
2023/10/05 01:56:20;;;;;;;10.80;3.20;;;;;;;10.45;98.00;99817.59;109302;1253;73003;-66
2023/10/05 01:59:08;;;;;;;9.20;2.80;;;;;;;10.48;97.90;99812.21;109323;1253;66571;-64
2023/10/05 02:01:56;;;;;;;9.90;3.10;;;;;;;10.50;98.30;99808.85;109348;1256;71315;-63
2023/10/05 02:04:48;;;;;;;10.60;3.20;;;;;;;10.54;97.97;99809.08;109513;1254;59285;-64
2023/10/05 02:07:36;;;;;;;10.20;3.50;;;;;;;10.57;98.13;99805.83;109448;1253;58813;-62
2023/10/05 02:10:24;;;;;;;13.10;3.60;;;;;;;10.59;98.00;99796.07;109514;1253;74348;-64
2023/10/05 02:13:13;;;;;;;9.70;3.00;;;;;;;10.63;97.91;99785.63;109523;1254;68159;-63
2023/10/05 02:16:02;;;;;;;12.60;3.20;;;;;;;10.66;97.89;99781.83;109510;1256;71124;-63
2023/10/05 02:18:51;;;;;;;10.40;3.60;;;;;;;10.65;97.90;99768.63;109356;1254;58298;-61
2023/10/05 02:21:38;;;;;;;10.90;3.20;;;;;;;10.70;97.91;99777.38;109547;1254;60181;-62
2023/10/05 02:24:30;;;;;;;13.00;3.90;;;;;;;10.72;97.88;99774.06;109479;1254;71527;-63
2023/10/05 02:27:18;;;;;;;11.20;3.30;;;;;;;10.74;97.48;99773.02;109505;1255;66323;-62
2023/10/05 02:30:09;;;;;;;10.50;3.30;;;;;;;10.77;97.47;99766.59;109450;1255;72351;-62
2023/10/05 02:32:58;;;;;;;10.40;3.20;;;;;;;10.78;97.52;99769.12;109341;1254;58644;-62
2023/10/05 02:35:48;;;;;;;12.20;3.20;;;;;;;10.78;97.60;99765.73;109348;1254;60455;-61
2023/10/05 02:38:37;;;;;;;12.70;3.60;;;;;;;10.80;97.54;99759.89;109499;1254;73365;-62
2023/10/05 02:41:30;;;;;;;12.50;3.30;;;;;;;10.83;97.44;99760.23;109359;1254;66866;-61
2023/10/05 02:44:19;;;;;;;11.40;3.50;;;;;;;10.82;97.44;99749.44;109303;1254;72691;-63
2023/10/05 02:47:14;;;;;;;12.20;3.60;;;;;;;10.82;97.21;99750.33;109492;1254;59492;-63
2023/10/05 02:50:05;;;;;;;10.70;3.50;;;;;;;10.83;97.25;99742.96;109366;1254;60848;-63
2023/10/05 02:52:53;;;;;;;12.30;4.00;;;;;;;10.82;97.02;99746.45;109397;1257;71492;-63
2023/10/05 02:55:40;;;;;;;10.10;3.60;;;;;;;10.81;97.14;99736.75;109340;1254;66376;-62
2023/10/05 02:58:29;;;;;;;10.80;3.00;;;;;;;10.78;97.29;99735.56;109491;1253;70065;-64
2023/10/05 03:01:18;;;;;;;12.20;3.40;;;;;;;10.77;97.39;99739.19;109443;1253;58554;-64
2023/10/05 03:04:16;;;;;;;11.70;3.10;;;;;;;10.76;97.33;99738.09;109546;1254;58137;-63
2023/10/05 03:07:05;;;;;;;13.70;3.80;;;;;;;10.76;97.46;99745.77;109526;1253;73859;-63
2023/10/05 03:09:59;;;;;;;10.30;3.10;;;;;;;10.73;97.64;99743.11;109443;1254;66504;-62
2023/10/05 03:12:52;;;;;;;11.50;3.00;;;;;;;10.72;97.67;99733.95;109309;1254;72538;-63
2023/10/05 03:15:40;;;;;;;10.40;3.00;;;;;;;10.71;97.67;99729.09;109354;1253;58267;-64
2023/10/05 03:18:28;;;;;;;11.20;3.10;;;;;;;10.70;97.70;99719.02;109469;1253;59975;-63
2023/10/05 03:21:17;;;;;;;12.40;3.30;;;;;;;10.71;97.45;99716.34;109426;1254;72731;-62
2023/10/05 03:24:13;;;;;;;10.00;2.90;;;;;;;10.69;97.86;99718.30;109381;1254;68625;-64
2023/10/05 03:27:05;;;;;;;11.10;3.20;;;;;;;10.67;97.86;99707.26;109116;1254;71886;-64
2023/10/05 03:29:57;;;;;;;14.40;3.80;;;;;;;10.66;97.63;99697.34;109292;1259;59349;-65
2023/10/05 03:32:48;;;;;;;12.00;3.20;;;;;;;10.66;97.74;99692.80;109322;1254;60380;-65
2023/10/05 03:35:36;;;;;;;14.40;4.40;;;;;;;10.63;98.11;99687.31;109191;1254;73362;-65
2023/10/05 03:38:27;;;;;;;12.20;3.90;;;;;;;10.63;97.97;99677.45;109196;1254;66610;-63
2023/10/05 03:41:16;;;;;;;10.20;3.00;;;;;;;10.62;98.39;99673.98;109237;1256;73658;-63
2023/10/05 03:44:07;;;;;;;9.90;3.40;;;;;;;10.62;98.31;99676.46;109187;1254;59677;-63
2023/10/05 03:46:55;;;;;;;12.50;4.00;;;;;;;10.62;98.23;99673.91;109349;1256;59169;-63
2023/10/05 03:49:54;;;;;;;14.90;4.40;;;;;;;10.63;98.08;99670.33;109166;1254;71720;-63
2023/10/05 03:52:46;;;;;;;14.90;3.80;;;;;;;10.64;98.15;99671.16;109174;1255;68534;-67
2023/10/05 03:55:35;;;;;;;11.20;3.80;;;;;;;10.65;97.96;99671.79;109260;1254;73621;-66
2023/10/05 03:58:23;;;;;;;12.70;3.70;;;;;;;10.66;98.03;99669.52;109404;1254;60257;-66
2023/10/05 04:01:12;;;;;;;10.80;3.50;;;;;;;10.69;97.65;99670.00;109221;1254;58775;-66
2023/10/05 04:04:07;;;;;;;11.60;3.70;;;;;;;10.71;97.87;99670.67;109141;1257;73511;-66
2023/10/05 04:06:57;;;;;;;12.50;3.70;;;;;;;10.72;98.02;99665.81;109458;1254;67856;-64
2023/10/05 04:09:45;;;;;;;12.10;3.90;;;;;;;10.75;97.62;99656.59;109266;1254;73362;-67
2023/10/05 04:12:34;;;;;;;11.70;3.80;;;;;;;10.74;97.69;99652.90;109188;1254;58046;-64
2023/10/05 04:15:22;;;;;;;10.90;3.50;;;;;;;10.74;97.50;99647.42;109413;1254;59009;-65
2023/10/05 04:18:11;;;;;;;13.10;3.80;;;;;;;10.75;97.12;99634.39;109499;1254;72928;-65
2023/10/05 04:20:59;;;;;;;10.00;3.50;;;;;;;10.75;97.28;99630.83;109350;1254;68415;-65
2023/10/05 04:23:50;;;;;;;12.70;3.60;;;;;;;10.74;97.15;99622.20;109461;1254;73709;-64
2023/10/05 04:26:39;;;;;;;14.30;4.20;;;;;;;10.72;97.30;99616.70;109232;1259;57659;-64
2023/10/05 04:29:27;;;;;;;12.20;3.90;;;;;;;10.69;97.39;99610.01;109326;1253;61181;-64
2023/10/05 04:32:15;;;;;;;11.90;3.90;;;;;;;10.68;97.37;99609.75;109229;1254;72922;-64
2023/10/05 04:35:11;;;;;;;12.50;3.80;;;;;;;10.67;97.42;99606.30;109526;1254;67903;-66
2023/10/05 04:38:00;;;;;;;13.10;4.10;;;;;;;10.66;97.56;99604.60;109229;1254;71414;-64
2023/10/05 04:40:52;;;;;;;12.00;3.90;;;;;;;10.67;97.17;99603.61;109377;1252;59319;-65
2023/10/05 04:43:41;;;;;;;11.90;3.90;;;;;;;10.68;97.11;99597.31;109301;1253;58036;-64
2023/10/05 04:46:29;;;;;;;10.80;3.70;;;;;;;10.67;97.22;99593.34;109356;1254;72948;-68
2023/10/05 04:49:18;;;;;;;11.70;3.90;;;;;;;10.67;96.94;99591.20;109060;1257;68432;-65
2023/10/05 04:52:06;;;;;;;10.30;3.30;;;;;;;10.68;96.87;99592.71;109031;1257;70289;-65
2023/10/05 04:54:57;;;;;;;11.70;4.00;;;;;;;10.67;96.96;99595.77;108998;1257;59045;-65
2023/10/05 04:58:15;;;;;;;10.20;3.30;;;;;;;10.68;96.62;99591.27;109065;1257;60469;-66
2023/10/05 05:04:12;;;;;;;15.80;4.50;;;;;;;10.68;96.55;99583.46;109067;1257;69376;-66
2023/10/05 05:07:11;;;;;;;10.70;3.80;;;;;;;10.69;96.69;99583.40;109040;1257;73626;-66
2023/10/05 05:09:59;;;;;;;12.50;3.70;;;;;;;10.69;96.52;99568.84;108903;1259;58102;-65
2023/10/05 05:12:50;;;;;;;15.10;4.80;;;;;;;10.72;96.52;99560.84;108947;1260;60968;-65
2023/10/05 05:15:42;;;;;;;11.50;4.00;;;;;;;10.72;96.24;99559.86;107514;1260;1002492;-64
2023/10/05 05:18:31;;;;;;;11.40;4.40;;;;;;;10.73;96.09;99554.51;108877;1259;69232;-64
2023/10/05 05:21:19;;;;;;;14.70;4.40;;;;;;;10.74;96.25;99553.66;109062;1257;70645;-66
2023/10/05 05:24:09;;;;;;;13.40;4.10;;;;;;;10.74;96.08;99546.59;109001;1258;58475;-65
2023/10/05 05:27:03;;;;;;;15.30;4.80;;;;;;;10.75;96.22;99547.42;109097;1257;59063;-67
2023/10/05 05:29:52;;;;;;;11.80;4.50;;;;;;;10.76;96.10;99542.67;109103;1257;71878;-64
2023/10/05 05:32:43;;;;;;;13.50;4.70;;;;;;;10.79;95.92;99541.17;109084;1257;67587;-66
2023/10/05 05:35:32;;;;;;;13.60;4.90;;;;;;;10.83;95.83;99537.29;109141;1257;71407;-65
2023/10/05 05:38:22;;;;;;;12.50;4.40;;;;;;;10.85;95.34;99532.88;109130;1257;58307;-65
2023/10/05 05:41:16;;;;;;;10.80;4.50;;;;;;;10.86;95.19;99527.14;109271;1253;59040;-65
2023/10/05 05:44:07;;;;;;;15.20;4.70;;;;;;;10.91;95.20;99527.19;109418;1257;73394;-66
2023/10/05 05:46:59;;;;;;;11.20;4.80;;;;;;;10.91;94.84;99528.13;109534;1253;66512;-63
2023/10/05 05:49:47;;;;;;;12.60;5.00;;;;;;;10.93;94.52;99514.84;109566;1254;72349;-65
2023/10/05 05:52:36;;;;;;;14.30;4.90;;;;;;;10.95;94.27;99513.23;109270;1254;59457;-64
2023/10/05 05:55:25;;;;;;;15.00;4.90;;;;;;;10.97;94.13;99512.63;109414;1251;58759;-68
2023/10/05 05:58:16;;;;;;;11.90;4.30;;;;;;;11.04;93.68;99507.10;109595;1251;73093;-65
2023/10/05 06:01:07;;;;;;;14.40;4.60;;;;;;;11.07;93.27;99509.49;109580;1251;67559;-65
2023/10/05 06:03:55;;;;;;;15.20;4.70;;;;;;;11.06;93.11;99507.58;109558;1251;70884;-65
2023/10/05 06:06:44;;;;;;;15.20;5.80;;;;;;;11.06;93.13;99509.38;109502;1251;59581;-65
2023/10/05 06:09:33;;;;;;;11.60;4.90;;;;;;;11.07;93.22;99504.31;109562;1251;59033;-68
2023/10/05 06:12:22;;;;;;;13.10;5.30;;;;;;;11.08;93.10;99504.42;109554;1251;72480;-66
2023/10/05 06:15:13;;;;;;;12.10;4.90;;;;;;;11.12;93.10;99505.71;109527;1251;67622;-69
2023/10/05 06:18:01;;;;;;;12.60;5.20;;;;;;;11.14;92.92;99506.51;109402;1251;70789;-64
2023/10/05 06:20:49;;;;;;;12.60;4.90;;;;;;;11.18;92.35;99500.02;109525;1251;58084;-67
2023/10/05 06:23:36;;;;;;;15.60;5.50;;;;;;;11.21;92.10;99508.57;109543;1252;60077;-63
2023/10/05 06:26:24;;;;;;;14.10;4.90;;;;;;;11.24;92.15;99501.90;109595;1251;71082;-65
2023/10/05 06:29:13;;;;;;;13.10;5.30;;;;;;;11.30;91.60;99497.89;109521;1251;68910;-67
2023/10/05 06:32:04;;;;;;;12.60;4.70;;;;;;;11.35;91.55;99498.08;109537;1251;71129;-63
2023/10/05 06:34:52;;;;;;;12.90;5.00;;;;;;;11.37;91.27;99494.55;109455;1251;57349;-64
2023/10/05 06:37:40;;;;;;;12.70;5.50;;;;;;;11.42;90.95;99490.23;109556;1251;58948;-64
2023/10/05 06:40:29;;;;;;;12.80;4.90;;;;;;;11.41;90.58;99479.08;109491;1252;73696;-64
2023/10/05 06:43:17;;;;;;;14.60;5.00;;;;;;;11.43;90.50;99483.55;109527;1254;65547;-64
2023/10/05 06:46:17;;;;;;;13.70;5.30;;;;;;;11.50;90.38;99478.86;109359;1252;72517;-66
2023/10/05 06:49:06;;;;;;;14.80;4.70;;;;;;;11.56;90.06;99481.87;109510;1254;59078;-65
2023/10/05 06:51:55;;;;;;;13.10;4.90;;;;;;;11.64;89.84;99478.32;109446;1253;60233;-65
2023/10/05 06:54:43;;;;;;;12.70;5.00;;;;;;;11.74;89.47;99480.36;109551;1254;72852;-65
2023/10/05 06:57:31;;;;;;;12.60;5.00;;;;;;;11.75;89.15;99477.65;109513;1252;66660;-65
2023/10/05 07:00:22;;;;;;;12.20;4.10;;;;;;;11.78;89.15;99466.64;109534;1252;71159;-65
2023/10/05 07:03:11;;;;;;;14.20;4.30;;;;;;;11.76;88.75;99453.52;109500;1253;57656;-66
2023/10/05 07:05:59;;;;;;;13.30;5.10;;;;;;;11.70;89.04;99456.02;109509;1253;58732;-67
2023/10/05 07:08:47;;;;;;;10.20;3.80;;;;;;;11.67;89.27;99458.60;109385;1252;72242;-64
2023/10/05 07:11:34;;;;;;;12.60;4.50;;;;;;;11.66;89.30;99457.30;109437;1253;68705;-64
2023/10/05 07:14:22;;;;;;;13.80;4.90;;;;;;;11.71;89.69;99448.35;109217;1253;71684;-65
2023/10/05 07:17:14;;;;;;;12.10;4.00;;;;;;;11.74;90.07;99449.61;109352;1253;58028;-65
2023/10/05 07:20:03;;;;;;;14.20;5.00;;;;;;;11.74;90.58;99449.64;109358;1253;61348;-64
2023/10/05 07:22:51;;;;;;;11.90;4.50;;;;;;;11.77;90.93;99455.98;109401;1253;71669;-63
2023/10/05 07:25:41;;;;;;;15.40;4.10;;;;;;;11.77;91.52;99446.66;109431;1254;67859;-66
2023/10/05 07:28:30;;;;;;;14.20;4.60;;;;;;;11.74;92.08;99450.91;109411;1253;71306;-63
2023/10/05 07:31:17;;;;;;;13.60;5.30;;;;;;;11.76;92.52;99450.66;109408;1254;59530;-65
2023/10/05 07:34:05;;;;;;;10.50;4.70;;;;;;;11.81;92.82;99444.90;109427;1253;60188;-66
2023/10/05 07:36:54;;;;;;;14.30;4.80;;;;;;;11.85;92.83;99444.69;109454;1253;71940;-64
2023/10/05 07:39:42;;;;;;;9.30;3.60;;;;;;;12.01;92.66;99437.94;109532;1252;67973;-63
2023/10/05 07:42:29;;;;;;;13.20;5.00;;;;;;;12.15;91.28;99446.63;109383;1253;71091;-64
2023/10/05 07:45:17;;;;;;;14.30;5.00;;;;;;;12.10;91.06;99453.13;109352;1253;58624;-65
2023/10/05 07:48:06;;;;;;;11.20;4.20;;;;;;;12.05;91.98;99453.00;109424;1252;61362;-65
2023/10/05 07:50:54;;;;;;;9.50;4.00;;;;;;;11.98;93.02;99447.84;109405;1252;72759;-67
2023/10/05 07:53:42;;;;;;;11.40;4.30;;;;;;;12.04;92.98;99450.58;109473;1252;68038;-64
2023/10/05 07:56:32;;;;;;;11.50;4.70;;;;;;;12.02;93.13;99446.39;109398;1253;71467;-65
2023/10/05 07:59:21;;;;;;;12.40;4.70;;;;;;;12.06;93.45;99450.84;109494;1252;59295;-65
2023/10/05 08:02:12;;;;;;;10.90;4.50;;;;;;;12.07;93.49;99448.23;109450;1253;59230;-65
2023/10/05 08:05:01;;;;;;;11.90;4.60;;;;;;;12.05;94.03;99458.55;109433;1253;73088;-66
2023/10/05 08:07:50;;;;;;;10.30;4.00;;;;;;;11.99;94.49;99450.77;109553;1253;68204;-64
2023/10/05 08:10:38;;;;;;;11.50;4.10;;;;;;;11.92;94.92;99451.56;109500;1253;70178;-65
2023/10/05 08:13:27;;;;;;;11.60;4.00;;;;;;;11.90;95.33;99452.23;109390;1252;58183;-66
2023/10/05 08:16:15;;;;;;;12.90;4.20;;;;;;;11.88;95.74;99453.52;109531;1252;60829;-62
2023/10/05 08:19:05;;;;;;;11.50;4.10;;;;;;;11.90;96.08;99453.64;109530;1252;72047;-65
2023/10/05 08:21:53;;;;;;;9.30;3.80;;;;;;;11.99;96.15;99453.73;109465;1252;67938;-66
2023/10/05 08:24:42;;;;;;;11.90;4.00;;;;;;;11.97;95.98;99439.23;109418;1253;72562;-66
2023/10/05 08:27:31;;;;;;;10.40;4.00;;;;;;;12.02;96.03;99448.38;109318;1253;60308;-67
2023/10/05 08:30:19;;;;;;;10.60;3.80;;;;;;;12.02;96.42;99447.91;109502;1253;59069;-65
2023/10/05 08:33:09;;;;;;;9.70;3.80;;;;;;;11.99;96.19;99445.60;109532;1253;73118;-65
2023/10/05 08:35:57;;;;;;;9.80;3.50;;;;;;;11.96;96.52;99452.84;109465;1253;67644;-65
2023/10/05 08:38:48;;;;;;;9.50;3.60;;;;;;;11.94;96.93;99458.27;109390;1253;71157;-65
2023/10/05 08:41:41;;;;;;;9.60;3.60;;;;;;;11.90;97.27;99452.80;109343;1254;59215;-64
2023/10/05 08:44:30;;;;;;;11.90;3.90;;;;;;;11.90;97.50;99458.42;109499;1252;58741;-63
2023/10/05 08:47:21;;;;;;;9.70;3.60;;;;;;;11.88;97.87;99466.77;109449;1252;73155;-68
2023/10/05 08:50:13;;;;;;;9.10;3.60;;;;;;;11.91;98.36;99467.23;109426;1253;68629;-66
2023/10/05 08:53:01;;;;;;;12.70;3.50;;;;;;;11.81;98.06;99448.66;109455;1253;73891;-67
2023/10/05 08:55:51;;;;;;;9.20;3.00;;;;;;;11.94;98.22;99463.64;109480;1253;59353;-67
2023/10/05 08:58:48;;;;;;;9.50;2.90;;;;;;;11.90;98.99;99460.58;109429;1252;60476;-67
2023/10/05 09:01:36;;;;;;;10.10;3.20;;;;;;;11.84;99.41;99463.27;109364;1253;73726;-64
2023/10/05 09:04:24;;;;;;;10.00;3.00;;;;;;;11.80;99.84;99460.16;109431;1253;67738;-67
2023/10/05 09:07:35;;;;;;;11.40;3.10;;;;;;;11.76;100.00;99465.98;109397;1252;71854;-66
2023/10/05 09:10:25;;;;;;;10.80;3.00;;;;;;;11.73;100.00;99462.66;109389;1253;59737;-65
2023/10/05 09:13:13;;;;;;;10.00;3.20;;;;;;;11.76;100.00;99473.44;109381;1253;59050;-66
2023/10/05 09:16:01;;;;;;;8.40;3.10;;;;;;;11.73;100.00;99482.95;109290;1252;73077;-67
2023/10/05 09:18:53;;;;;;;9.80;3.20;;;;;;;11.73;100.00;99475.09;109407;1253;67639;-67
2023/10/05 09:21:50;;;;;;;7.50;2.80;;;;;;;11.79;100.00;99478.30;109500;1252;72416;-68
2023/10/05 09:24:43;;;;;;;9.30;2.70;;;;;;;11.86;100.00;99483.00;109370;1253;57993;-65
2023/10/05 09:27:50;;;;;;;9.10;3.00;;;;;;;11.96;100.00;99475.08;109237;1253;58886;-66
2023/10/05 09:31:02;;;;;;;11.30;3.10;;;;;;;12.04;99.93;99476.40;109417;1252;71750;-63
2023/10/05 09:33:53;;;;;;;8.30;2.90;;;;;;;12.23;98.66;99477.46;109227;1252;67777;-63
2023/10/05 09:36:41;;;;;;;8.90;2.90;;;;;;;12.37;98.04;99479.52;109417;1253;71793;-68
2023/10/05 09:39:30;;;;;;;7.90;2.40;;;;;;;12.49;97.20;99476.46;109409;1253;60324;-68
2023/10/05 09:42:25;;;;;;;7.90;2.90;;;;;;;12.52;95.83;99477.94;109567;1252;58782;-63
2023/10/05 09:45:13;;;;;;;8.00;2.60;;;;;;;12.61;95.24;99475.11;109421;1252;74361;-65
2023/10/05 09:48:03;;;;;;;7.90;2.70;;;;;;;13.85;92.56;99472.66;109575;1253;66525;-64
2023/10/05 09:50:52;;;;;;;7.60;2.50;;;;;;;15.63;83.95;99467.42;109389;1253;71640;-64
2023/10/05 09:53:43;;;;;;;9.70;2.50;;;;;;;16.90;76.63;99464.34;109325;1252;57323;-63
2023/10/05 09:56:30;;;;;;;8.30;2.50;;;;;;;17.29;73.51;99466.00;109244;1252;60368;-65
2023/10/05 09:59:31;;;;;;;10.70;2.20;;;;;;;19.19;67.46;99464.93;109384;1252;72976;-63
2023/10/05 10:02:22;;;;;;;8.10;1.80;;;;;;;20.74;60.18;99465.48;109515;1252;68269;-66
2023/10/05 10:05:29;;;;;;;6.90;2.00;;;;;;;22.01;54.72;99463.89;109420;1252;72571;-67
2023/10/05 10:08:30;;;;;;;6.70;1.80;;;;;;;21.86;54.15;99469.77;109429;1253;58711;-61
2023/10/05 10:11:20;;;;;;;7.00;1.80;;;;;;;21.02;56.63;99476.89;109450;1253;58957;-63
2023/10/05 10:14:18;;;;;;;7.50;2.10;;;;;;;20.04;58.52;99473.77;109520;1252;73061;-62
2023/10/05 10:17:24;;;;;;;7.70;2.10;;;;;;;19.17;60.42;99484.11;109505;1252;68484;-63
2023/10/05 10:20:34;;;;;;;8.00;2.30;;;;;;;18.58;63.41;99483.70;109310;1252;72431;-66
2023/10/05 10:23:25;;;;;;;8.70;2.10;;;;;;;19.61;61.03;99479.48;109291;1253;59075;-63
2023/10/05 10:26:17;;;;;;;8.10;2.10;;;;;;;19.48;60.91;99484.46;109385;1252;60299;-63
2023/10/05 10:29:11;;;;;;;7.40;2.10;;;;;;;19.75;59.49;99489.19;109373;1252;72584;-65
2023/10/05 10:32:21;;;;;;;7.70;1.80;;;;;;;19.49;59.09;99492.28;109417;1253;66451;-67
2023/10/05 10:35:10;;;;;;;7.90;2.10;;;;;;;19.64;58.90;99489.16;109434;1253;72381;-63
2023/10/05 10:38:05;;;;;;;7.90;2.20;;;;;;;20.42;56.90;99485.88;109482;1252;57758;-65
2023/10/05 10:41:07;;;;;;;7.60;2.00;;;;;;;21.22;52.43;99489.18;109498;1252;59315;-64
2023/10/05 10:43:57;;;;;;;8.00;2.00;;;;;;;20.43;53.99;99494.02;109317;1254;73378;-64
2023/10/05 10:46:45;;;;;;;8.30;2.10;;;;;;;19.44;58.12;99499.20;109451;1253;69140;-65
2023/10/05 10:49:34;;;;;;;8.90;2.20;;;;;;;18.71;61.97;99494.38;109422;1254;72378;-64
2023/10/05 10:52:22;;;;;;;7.00;2.00;;;;;;;17.90;63.84;99494.61;109432;1253;57595;-64
2023/10/05 10:55:21;;;;;;;7.40;1.80;;;;;;;16.99;65.36;99512.55;109435;1254;59386;-65
2023/10/05 10:58:13;;;;;;;8.20;1.90;;;;;;;16.10;68.18;99501.38;109400;1253;71438;-67
2023/10/05 11:01:03;;;;;;;6.80;1.50;;;;;;;15.44;71.14;99495.91;109462;1254;67663;-64
2023/10/05 11:03:55;;;;;;;7.80;1.80;;;;;;;14.85;73.68;99509.92;109374;1254;71398;-65
2023/10/05 11:06:48;;;;;;;7.00;1.60;;;;;;;14.76;75.77;99507.90;109466;1254;57320;-64
2023/10/05 11:09:48;;;;;;;9.50;1.90;;;;;;;15.38;75.45;99500.70;109304;1254;60190;-65
2023/10/05 11:12:42;;;;;;;8.20;2.00;;;;;;;15.76;75.23;99500.96;109425;1254;71758;-65
2023/10/05 11:15:31;;;;;;;8.80;1.90;;;;;;;15.82;75.54;99511.51;109297;1254;66649;-65
2023/10/05 11:18:19;;;;;;;8.20;1.70;;;;;;;15.55;76.03;99511.59;109373;1254;72463;-63
2023/10/05 11:21:17;;;;;;;7.70;1.80;;;;;;;15.37;75.62;99512.26;109256;1254;57679;-64
2023/10/05 11:24:08;;;;;;;8.30;1.80;;;;;;;15.79;76.33;99514.72;109379;1254;60057;-65
2023/10/05 11:29:55;;;;;;;8.10;1.90;;;;;;;17.27;68.49;99516.40;109357;1254;68841;-65
2023/10/05 11:32:57;;;;;;;7.50;1.70;;;;;;;18.10;64.86;99512.27;109419;1253;72531;-65
2023/10/05 11:36:21;;;;;;;7.80;1.60;;;;;;;19.02;61.21;99510.48;109413;1252;58035;-65
2023/10/05 11:39:21;;;;;;;9.80;2.00;;;;;;;19.74;58.16;99507.70;109461;1252;58722;-65
2023/10/05 11:42:11;;;;;;;8.40;2.00;;;;;;;20.31;55.91;99497.81;109523;1253;73783;-66
2023/10/05 11:44:59;;;;;;;9.20;1.70;;;;;;;20.73;54.33;99500.06;109536;1252;67731;-65
2023/10/05 11:47:56;;;;;;;6.90;1.80;;;;;;;20.80;51.28;99502.40;109520;1252;72732;-65
2023/10/05 11:50:53;;;;;;;7.60;1.60;;;;;;;21.00;51.95;99504.16;109427;1253;57366;-65
2023/10/05 11:53:43;;;;;;;7.00;1.60;;;;;;;21.02;49.31;99507.30;109475;1252;58977;-64
2023/10/05 11:56:31;;;;;;;6.40;1.50;;;;;;;21.02;50.02;99498.89;109439;1252;72777;-65
2023/10/05 11:59:30;;;;;;;7.80;1.70;;;;;;;20.91;49.68;99503.25;109499;1252;66521;-65
2023/10/05 12:02:22;;;;;;;7.30;1.40;;;;;;;20.89;47.82;99505.27;109462;1252;71051;-63
2023/10/05 12:05:11;;;;;;;8.10;1.50;;;;;;;20.68;46.09;99501.44;109521;1252;58027;-64
2023/10/05 12:08:00;;;;;;;6.90;1.30;;;;;;;20.39;46.07;99496.08;109452;1253;61302;-64
2023/10/05 12:10:47;;;;;;;8.40;1.80;;;;;;;19.60;47.08;99507.44;109486;1252;71651;-64
2023/10/05 12:13:36;;;;;;;6.80;1.40;;;;;;;18.92;48.23;99510.60;109497;1252;67984;-63
2023/10/05 12:16:26;;;;;;;7.80;1.60;;;;;;;18.56;49.91;99521.11;109473;1252;71604;-63
2023/10/05 12:19:14;;;;;;;9.80;2.00;;;;;;;17.95;50.80;99540.34;109364;1252;58007;-64
2023/10/05 12:22:03;;;;;;;7.70;1.90;;;;;;;17.59;52.06;99548.31;109526;1252;61425;-63
2023/10/05 12:24:51;;;;;;;9.10;1.80;;;;;;;17.33;52.02;99543.95;109507;1252;72689;-67
2023/10/05 12:27:38;;;;;;;13.70;1.80;;;;;;;16.86;52.69;99551.55;109533;1252;67609;-63
2023/10/05 12:30:30;;;;;;;10.40;1.70;;;;;;;16.54;53.84;99544.48;109481;1252;73394;-68
2023/10/05 12:33:18;;;;;;;9.20;1.50;;;;;;;16.16;55.60;99544.97;109438;1253;57369;-64
2023/10/05 12:36:12;;;;;;;10.40;1.70;;;;;;;15.87;56.44;99553.56;109413;1252;60653;-65
2023/10/05 12:38:59;;;;;;;8.70;1.90;;;;;;;15.52;57.80;99553.01;109382;1252;70839;-64
2023/10/05 12:41:50;;;;;;;9.40;1.80;;;;;;;15.39;58.49;99554.52;109456;1252;67941;-65
2023/10/05 12:44:39;;;;;;;8.50;1.50;;;;;;;15.34;58.63;99550.95;109513;1252;73436;-65
2023/10/05 12:47:28;;;;;;;9.00;1.90;;;;;;;15.26;59.62;99557.32;109544;1252;58062;-63
2023/10/05 12:50:16;;;;;;;9.00;1.70;;;;;;;15.21;60.42;99563.44;109359;1253;60399;-66
2023/10/05 12:53:05;;;;;;;10.30;1.80;;;;;;;15.15;62.08;99552.62;108762;1252;1002400;-64
2023/10/05 12:55:56;;;;;;;9.00;1.40;;;;;;;15.11;63.39;99556.56;108845;1252;1002792;-63
2023/10/05 12:58:44;;;;;;;8.90;1.80;;;;;;;15.15;64.17;99554.06;109513;1252;72621;-66
2023/10/05 13:01:33;;;;;;;9.80;1.90;;;;;;;15.11;64.55;99562.36;109329;1252;57621;-65
2023/10/05 13:04:22;;;;;;;11.40;1.80;;;;;;;14.94;63.45;99573.15;109384;1253;187464;-67
2023/10/05 13:07:10;;;;;;;11.90;2.00;;;;;;;15.00;63.64;99569.55;109535;1252;72897;-66
2023/10/05 13:10:08;;;;;;;12.50;1.80;;;;;;;15.10;63.45;99568.12;109499;1253;67693;-63
2023/10/05 13:13:00;;;;;;;8.00;1.70;;;;;;;15.15;63.60;99574.21;109524;1252;71524;-64
2023/10/05 13:15:50;;;;;;;9.70;2.00;;;;;;;15.08;64.02;99581.36;109418;1253;57885;-63
2023/10/05 13:18:42;;;;;;;9.50;1.80;;;;;;;14.93;65.83;99585.42;109437;1252;60080;-64
2023/10/05 13:21:30;;;;;;;11.10;1.70;;;;;;;14.88;67.90;99589.20;109494;1252;72695;-65
2023/10/05 13:24:18;;;;;;;10.10;1.80;;;;;;;14.84;69.15;99596.52;109478;1252;67912;-66